Stolt Dipper — ZCMY3 — position and weather

sailwx.info

Track history (hours):
 
Tides and Currents Weather Stations Pressure Air Temp Water Temp Dewpoint Dewpoint Depression Visibility Wind Speed Wind Dir Waves Ship Positions

Stolt Dipper

Last reported at 2014-Sep-01 07:15 UTC. Time now 2014-Sep-01 11:31 UTC.
Position N 55°09' W 007°07'.

Length 96 m; draft 6 m.

Type: Ship (hazmat cat B). MMSI: 319036000.

Date/timePositionNaut miles runAvg speedWind from/ knotsBaromVisibWave heightAir tempDewpointWater temp
2014-Sep-01 07:15N 55°09' W 007°07'911.3
2014-Sep-01 06:27N 55°14' W 006°54'1213.1
2014-Sep-01 05:33N 55°20' W 006°36'1413.5
2014-Sep-01 04:33N 55°26' W 006°14'1312.7
2014-Sep-01 03:33N 55°19' W 005°56'1313.0
2014-Sep-01 02:33N 55°08' W 005°44'1211.8
2014-Sep-01 01:33N 54°57' W 005°34'1111.4
2014-Sep-01 00:33N 54°47' W 005°28'1110.7
2014-Aug-31 23:33N 54°37' W 005°21'1110.9
2014-Aug-31 22:33N 54°26' W 005°15'1412.1
2014-Aug-31 21:23N 54°13' W 005°06'4812.5
2014-Aug-31 17:33N 53°41' W 004°06'1414.0
2014-Aug-31 16:33N 53°34' W 003°45'1513.4
2014-Aug-31 15:26N 53°33' W 003°20'1111.3
2014-Aug-31 14:28N 53°28' W 003°04'0 0.0
2014-Aug-31 00:34N 53°28' W 003°04'13 2.4
2014-Aug-30 19:03N 53°30' W 003°25'611.7
2014-Aug-30 18:31N 53°31' W 003°36'436 9.9
2014-Aug-28 22:32N 46°18' W 002°14'1312.9
2014-Aug-28 21:33N 46°13' W 001°57'1313.1
2014-Aug-28 20:33N 46°09' W 001°39'18 0.6
2014-Aug-27 15:25N 46°03' W 001°14'1213.5
2014-Aug-27 14:34N 46°07' W 001°30'1312.8
2014-Aug-27 13:33N 46°11' W 001°47'1212.4
2014-Aug-27 12:33N 46°19' W 002°01'1312.5
2014-Aug-27 11:33N 46°27' W 002°15'3511.7
2014-Aug-27 08:33N 46°58' W 002°40'  
2014-Aug-24 23:33N 47°52' W 005°00'1111.0
2014-Aug-24 22:33N 47°58' W 005°14'1211.9
2014-Aug-24 21:33N 48°05' W 005°29'1211.5
2014-Aug-24 20:33N 48°12' W 005°42'27511.0
2014-Aug-23 19:32N 50°32' E 000°22'18511.6
2014-Aug-23 03:32N 52°48' E 003°44'5511.0
2014-Aug-22 22:33N 53°29' E 004°44'1212.0
2014-Aug-22 21:33N 53°34' E 005°03'1211.8
2014-Aug-22 20:33N 53°37' E 005°22'1111.1
2014-Aug-22 19:33N 53°41' E 005°40'1110.6
2014-Aug-22 18:33N 53°44' E 005°57'5610.4
2014-Aug-22 13:07N 53°60' E 007°29'610.3
2014-Aug-22 12:33N 54°01' E 007°39'1110.5
2014-Aug-22 11:33N 54°01' E 007°57'1110.7
2014-Aug-22 10:32N 54°00' E 008°15'1111.7
2014-Aug-22 09:34N 53°58' E 008°34'1010.4
2014-Aug-22 08:33N 53°51' E 008°47'10 9.8
2014-Aug-22 07:33N 53°52' E 009°03'  
Track history (hours):
 
Tides and Currents Weather Stations Pressure Air Temp Water Temp Dewpoint Dewpoint Depression Visibility Wind Speed Wind Dir Waves Ship Positions

Stolt Dipper

Last reported at 2014-Sep-01 07:15 UTC. Time now 2014-Sep-01 11:31 UTC.
Position N 55°09' W 007°07'.

Length 96 m; draft 6 m.

Type: Ship (hazmat cat B). MMSI: 319036000.

Date/timePositionNaut miles runAvg speedWind from/ knotsBaromVisibWave heightAir tempDewpointWater temp
2014-Sep-01 07:15N 55°09' W 007°07'911.3
2014-Sep-01 06:27N 55°14' W 006°54'1213.1
2014-Sep-01 05:33N 55°20' W 006°36'1413.5
2014-Sep-01 04:33N 55°26' W 006°14'1312.7
2014-Sep-01 03:33N 55°19' W 005°56'1313.0
2014-Sep-01 02:33N 55°08' W 005°44'1211.8
2014-Sep-01 01:33N 54°57' W 005°34'1111.4
2014-Sep-01 00:33N 54°47' W 005°28'1110.7
2014-Aug-31 23:33N 54°37' W 005°21'1110.9
2014-Aug-31 22:33N 54°26' W 005°15'1412.1
2014-Aug-31 21:23N 54°13' W 005°06'4812.5
2014-Aug-31 17:33N 53°41' W 004°06'1414.0
2014-Aug-31 16:33N 53°34' W 003°45'1513.4
2014-Aug-31 15:26N 53°33' W 003°20'1111.3
2014-Aug-31 14:28N 53°28' W 003°04'0 0.0
2014-Aug-31 00:34N 53°28' W 003°04'13 2.4
2014-Aug-30 19:03N 53°30' W 003°25'611.7
2014-Aug-30 18:31N 53°31' W 003°36'436 9.9
2014-Aug-28 22:32N 46°18' W 002°14'1312.9
2014-Aug-28 21:33N 46°13' W 001°57'1313.1
2014-Aug-28 20:33N 46°09' W 001°39'18 0.6
2014-Aug-27 15:25N 46°03' W 001°14'1213.5
2014-Aug-27 14:34N 46°07' W 001°30'1312.8
2014-Aug-27 13:33N 46°11' W 001°47'1212.4
2014-Aug-27 12:33N 46°19' W 002°01'1312.5
2014-Aug-27 11:33N 46°27' W 002°15'3511.7
2014-Aug-27 08:33N 46°58' W 002°40'  
2014-Aug-24 23:33N 47°52' W 005°00'1111.0
2014-Aug-24 22:33N 47°58' W 005°14'1211.9
2014-Aug-24 21:33N 48°05' W 005°29'1211.5
2014-Aug-24 20:33N 48°12' W 005°42'27511.0
2014-Aug-23 19:32N 50°32' E 000°22'18511.6
2014-Aug-23 03:32N 52°48' E 003°44'5511.0
2014-Aug-22 22:33N 53°29' E 004°44'1212.0
2014-Aug-22 21:33N 53°34' E 005°03'1211.8
2014-Aug-22 20:33N 53°37' E 005°22'1111.1
2014-Aug-22 19:33N 53°41' E 005°40'1110.6
2014-Aug-22 18:33N 53°44' E 005°57'5610.4
2014-Aug-22 13:07N 53°60' E 007°29'610.3
2014-Aug-22 12:33N 54°01' E 007°39'1110.5
2014-Aug-22 11:33N 54°01' E 007°57'1110.7
2014-Aug-22 10:32N 54°00' E 008°15'1111.7
2014-Aug-22 09:34N 53°58' E 008°34'1010.4
2014-Aug-22 08:33N 53°51' E 008°47'10 9.8
2014-Aug-22 07:33N 53°52' E 009°03'  

Dump ship's entire track history